createdAt,value
2022-12-13T00:02:03.155Z,2.80
2022-12-13T00:04:32.631Z,2.63
2022-12-13T00:07:02.105Z,2.30
2022-12-13T00:09:31.527Z,2.60
2022-12-13T00:12:01.029Z,3.03
2022-12-13T00:14:32.121Z,2.17
2022-12-13T00:17:01.615Z,2.80
2022-12-13T00:19:31.074Z,2.77
2022-12-13T00:22:00.572Z,3.02
2022-12-13T00:24:30.009Z,2.70
2022-12-13T00:26:59.462Z,2.60
2022-12-13T00:29:28.888Z,2.80
2022-12-13T00:32:01.034Z,2.80
2022-12-13T00:34:30.584Z,2.43
2022-12-13T00:37:00.461Z,2.47
2022-12-13T00:39:30.959Z,2.40
2022-12-13T00:42:00.386Z,3.57
2022-12-13T00:44:31.538Z,2.70
2022-12-13T00:47:01.003Z,2.40
2022-12-13T00:49:30.425Z,3.13
2022-12-13T00:52:00.157Z,2.57
2022-12-13T00:54:29.590Z,2.60
2022-12-13T00:56:59.110Z,2.90
2022-12-13T00:59:28.557Z,2.70
2022-12-13T01:01:58.055Z,2.53
2022-12-13T01:04:27.504Z,2.80
2022-12-13T01:06:56.933Z,2.90
2022-12-13T01:09:30.034Z,2.80
2022-12-13T01:12:02.969Z,2.83
2022-12-13T01:14:34.538Z,2.87
2022-12-13T01:17:04.374Z,2.40
2022-12-13T01:19:34.299Z,2.50
2022-12-13T01:22:07.779Z,2.03
2022-12-13T01:24:37.454Z,2.10
2022-12-13T01:27:07.175Z,2.07
2022-12-13T01:29:36.608Z,2.47
2022-12-13T01:32:06.659Z,2.80
2022-12-13T01:34:36.092Z,2.60
2022-12-13T01:37:05.537Z,2.40
2022-12-13T01:39:38.231Z,2.50
2022-12-13T01:42:06.194Z,2.97
2022-12-13T01:45:03.235Z,2.30
2022-12-13T01:47:52.128Z,2.30
2022-12-13T01:50:35.345Z,2.83
2022-12-13T01:53:08.939Z,2.80
2022-12-13T01:55:42.545Z,2.70
2022-12-13T01:58:14.579Z,2.00
2022-12-13T02:00:45.455Z,2.70
2022-12-13T02:03:21.076Z,2.60
2022-12-13T02:06:11.060Z,2.80
2022-12-13T02:08:43.722Z,2.40
2022-12-13T02:11:14.943Z,2.30
2022-12-13T02:13:44.407Z,2.40
2022-12-13T02:16:29.542Z,2.60
2022-12-13T02:19:55.323Z,2.70
2022-12-13T02:22:50.088Z,2.60
2022-12-13T02:25:52.898Z,2.67
2022-12-13T02:28:50.905Z,2.63
2022-12-13T02:31:46.089Z,2.33
2022-12-13T02:34:38.340Z,2.40
2022-12-13T02:37:33.449Z,2.50
2022-12-13T02:40:29.917Z,2.37
2022-12-13T02:43:06.607Z,2.40
2022-12-13T02:45:40.659Z,2.77
2022-12-13T02:48:14.385Z,2.60
2022-12-13T02:50:45.523Z,2.83
2022-12-13T02:53:17.010Z,3.00
2022-12-13T02:55:46.426Z,2.63
2022-12-13T02:58:20.486Z,2.73
2022-12-13T03:01:29.900Z,2.33
2022-12-13T03:04:26.058Z,2.30
2022-12-13T03:06:58.940Z,2.83
2022-12-13T03:09:38.430Z,2.80
2022-12-13T03:12:50.216Z,2.57
2022-12-13T03:15:29.884Z,2.50
2022-12-13T03:18:06.494Z,2.53
2022-12-13T03:20:35.931Z,2.50
2022-12-13T03:23:05.375Z,2.40
2022-12-13T03:25:34.815Z,2.10
2022-12-13T03:28:04.341Z,2.20
2022-12-13T03:30:35.477Z,3.07
2022-12-13T03:33:05.663Z,2.60
2022-12-13T03:35:44.979Z,3.17
2022-12-13T03:38:07.427Z,2.53
2022-12-13T03:40:37.977Z,2.90
2022-12-13T03:43:07.488Z,2.33
2022-12-13T03:45:36.983Z,2.23
2022-12-13T03:48:06.580Z,2.43
2022-12-13T03:50:36.011Z,2.57
2022-12-13T03:53:05.897Z,2.20
2022-12-13T03:55:37.053Z,2.30
2022-12-13T03:58:08.141Z,3.20
2022-12-13T04:00:37.673Z,2.30
2022-12-13T04:03:07.460Z,2.93
2022-12-13T04:05:37.036Z,2.90
2022-12-13T04:08:21.658Z,2.27
2022-12-13T04:10:38.443Z,2.43
2022-12-13T04:13:26.230Z,2.37
2022-12-13T04:15:55.873Z,2.60
2022-12-13T04:18:25.733Z,2.30
2022-12-13T04:20:55.165Z,2.10
2022-12-13T04:23:24.669Z,2.40
2022-12-13T04:25:54.298Z,2.00
2022-12-13T04:28:23.748Z,1.80
2022-12-13T04:30:54.348Z,2.33
2022-12-13T04:33:25.034Z,2.40
2022-12-13T04:35:54.525Z,1.70
2022-12-13T04:38:23.997Z,1.70
2022-12-13T04:40:53.425Z,1.80
2022-12-13T04:43:22.874Z,2.37
2022-12-13T04:45:53.971Z,2.03
2022-12-13T04:48:31.036Z,2.13
2022-12-13T04:50:54.535Z,1.97
2022-12-13T04:53:23.984Z,2.47
2022-12-13T04:55:53.421Z,2.07
2022-12-13T04:58:23.354Z,2.13
2022-12-13T05:00:52.962Z,2.47
2022-12-13T05:03:22.856Z,2.60
2022-12-13T05:05:52.528Z,2.40
2022-12-13T05:08:22.438Z,2.70
2022-12-13T05:10:51.850Z,2.60
2022-12-13T05:13:21.311Z,2.40
2022-12-13T05:16:01.001Z,2.33
2022-12-13T05:18:30.892Z,2.17
2022-12-13T05:21:06.100Z,2.90
2022-12-13T05:23:35.895Z,2.70
2022-12-13T05:26:06.125Z,2.90
2022-12-13T05:28:36.235Z,2.63
2022-12-13T05:31:23.473Z,3.10
2022-12-13T05:33:43.522Z,3.50
2022-12-13T05:36:12.952Z,3.40
2022-12-13T05:38:42.406Z,3.10
2022-12-13T05:43:42.308Z,3.83
2022-12-13T05:46:14.471Z,3.40
2022-12-13T05:48:44.177Z,3.23
2022-12-13T05:51:13.784Z,2.80
2022-12-13T05:53:48.570Z,2.50
2022-12-13T05:56:22.374Z,2.60
2022-12-13T05:58:47.119Z,2.77
2022-12-13T06:01:18.444Z,2.60
2022-12-13T06:03:48.403Z,2.87
2022-12-13T06:06:21.200Z,2.90
2022-12-13T06:08:50.730Z,3.30
2022-12-13T06:11:31.177Z,2.83
2022-12-13T06:13:53.264Z,3.80
2022-12-13T06:16:24.934Z,3.30
2022-12-13T06:19:03.648Z,2.80
2022-12-13T06:21:27.802Z,3.40
2022-12-13T06:23:57.301Z,3.97
2022-12-13T06:26:26.797Z,3.70
2022-12-13T06:28:56.258Z,3.67
2022-12-13T06:31:26.158Z,3.63
2022-12-13T06:33:55.644Z,3.70
2022-12-13T06:36:25.076Z,3.63
2022-12-13T06:38:54.561Z,3.90
2022-12-13T06:41:27.661Z,3.60
2022-12-13T06:43:55.224Z,3.50
2022-12-13T06:46:25.285Z,3.60
2022-12-13T06:48:55.168Z,2.90
2022-12-13T06:51:32.400Z,3.40
2022-12-13T06:53:56.488Z,3.63
2022-12-13T06:56:27.709Z,2.67
2022-12-13T06:59:01.930Z,2.77
2022-12-13T07:01:28.415Z,2.90
2022-12-13T07:03:59.532Z,3.00
2022-12-13T07:06:29.131Z,2.80
2022-12-13T07:08:59.405Z,3.07
2022-12-13T07:11:34.328Z,2.90
2022-12-13T07:14:03.840Z,3.67
2022-12-13T07:16:33.328Z,4.00
2022-12-13T07:19:04.341Z,3.70
2022-12-13T07:21:36.376Z,4.07
2022-12-13T07:24:06.020Z,3.73
2022-12-13T07:26:35.643Z,3.73
2022-12-13T07:29:06.322Z,3.70
2022-12-13T07:31:38.202Z,3.43
2022-12-13T07:34:11.655Z,3.30
2022-12-13T07:36:39.266Z,3.07
2022-12-13T07:39:08.733Z,3.00
2022-12-13T07:41:38.166Z,3.20
2022-12-13T07:44:07.660Z,3.80
2022-12-13T07:46:37.193Z,4.63
2022-12-13T07:49:07.184Z,4.20
2022-12-13T07:51:37.297Z,3.40
2022-12-13T07:54:08.592Z,3.17
2022-12-13T07:56:38.391Z,3.23
2022-12-13T07:59:07.819Z,3.20
2022-12-13T08:01:37.432Z,3.63
2022-12-13T08:04:08.813Z,3.30
2022-12-13T08:06:39.592Z,4.00
2022-12-13T08:09:09.014Z,3.30
2022-12-13T08:11:38.463Z,3.53
2022-12-13T08:14:08.861Z,3.87
2022-12-13T08:16:38.334Z,3.40
2022-12-13T08:19:07.818Z,3.70
2022-12-13T08:21:57.818Z,3.20
2022-12-13T08:24:15.638Z,3.53
2022-12-13T08:26:42.755Z,4.17
2022-12-13T08:29:13.726Z,3.53
2022-12-13T08:31:44.971Z,3.90
2022-12-13T08:34:14.409Z,3.53
2022-12-13T08:36:43.900Z,3.17
2022-12-13T08:39:13.355Z,3.47
2022-12-13T08:41:42.825Z,3.23
2022-12-13T08:44:12.421Z,3.30
2022-12-13T08:46:42.093Z,3.23
2022-12-13T08:49:13.493Z,3.47
2022-12-13T08:51:42.983Z,3.70
2022-12-13T08:54:12.479Z,4.30
2022-12-13T08:56:43.735Z,4.43
2022-12-13T08:59:13.258Z,4.07
2022-12-13T09:01:44.524Z,4.73
2022-12-13T09:04:13.930Z,4.30
2022-12-13T09:06:44.424Z,4.10
2022-12-13T09:09:13.862Z,3.53
2022-12-13T09:11:43.485Z,3.30
2022-12-13T09:14:13.971Z,4.70
2022-12-13T09:16:51.110Z,4.50
2022-12-13T09:19:26.156Z,3.67
2022-12-13T09:21:46.344Z,3.50
2022-12-13T09:24:24.307Z,3.40
2022-12-13T09:26:47.305Z,4.30
2022-12-13T09:29:16.730Z,4.03
2022-12-13T09:31:52.681Z,3.47
2022-12-13T09:34:17.369Z,3.50
2022-12-13T09:36:46.829Z,3.00
2022-12-13T09:39:17.523Z,3.47
2022-12-13T09:41:51.514Z,3.90
2022-12-13T09:44:43.798Z,3.77
2022-12-13T09:47:13.158Z,3.43
2022-12-13T09:49:52.162Z,3.50
2022-12-13T09:52:21.941Z,3.30
2022-12-13T09:54:58.448Z,3.20
2022-12-13T09:57:34.366Z,3.20
2022-12-13T10:00:11.525Z,3.70
2022-12-13T10:02:47.867Z,3.47
2022-12-13T10:05:39.867Z,3.30
2022-12-13T10:08:19.743Z,3.33
2022-12-13T10:10:54.315Z,3.33
2022-12-13T10:13:45.803Z,3.80
2022-12-13T10:16:23.215Z,3.23
2022-12-13T10:18:53.838Z,3.13
2022-12-13T10:21:30.472Z,3.40
2022-12-13T10:24:25.955Z,3.63
2022-12-13T10:26:40.775Z,4.50
2022-12-13T10:29:12.746Z,3.40
2022-12-13T10:31:52.387Z,3.37
2022-12-13T10:34:31.465Z,4.27
2022-12-13T10:37:02.300Z,3.80
2022-12-13T10:39:44.399Z,3.20
2022-12-13T10:42:22.795Z,3.37
2022-12-13T10:44:50.114Z,3.50
2022-12-13T10:47:26.358Z,3.70
2022-12-13T10:50:01.947Z,3.07
2022-12-13T10:52:43.648Z,3.57
2022-12-13T10:55:29.774Z,3.50
2022-12-13T10:58:03.444Z,2.80
2022-12-13T11:00:46.228Z,3.10
2022-12-13T11:03:32.506Z,2.93
2022-12-13T11:06:18.468Z,3.20
2022-12-13T11:08:48.505Z,3.10
2022-12-13T11:11:21.648Z,3.60
2022-12-13T11:14:03.627Z,3.90
2022-12-13T11:16:38.053Z,3.20
2022-12-13T11:19:29.527Z,3.23
2022-12-13T11:22:01.415Z,2.90
2022-12-13T11:24:42.154Z,3.27
2022-12-13T11:27:34.380Z,3.30
2022-12-13T11:30:24.007Z,3.80
2022-12-13T11:33:15.373Z,3.60
2022-12-13T11:36:22.693Z,3.30
2022-12-13T11:39:11.447Z,4.40
2022-12-13T11:42:24.535Z,3.22
2022-12-13T11:45:33.118Z,3.27
2022-12-13T11:48:22.476Z,3.57
2022-12-13T11:50:56.463Z,3.20
2022-12-13T11:54:00.584Z,3.40
2022-12-13T11:56:40.412Z,3.20
2022-12-13T11:59:39.860Z,3.13
2022-12-13T12:02:27.421Z,3.20
2022-12-13T12:05:01.084Z,3.50
2022-12-13T12:08:05.231Z,3.67
2022-12-13T12:10:45.681Z,2.97
2022-12-13T12:13:51.188Z,3.57
2022-12-13T12:16:34.070Z,3.30
2022-12-13T12:19:03.707Z,3.57
2022-12-13T12:22:12.756Z,2.90
2022-12-13T12:24:50.215Z,2.90
2022-12-13T12:28:02.470Z,3.40
2022-12-13T12:30:42.081Z,3.30
2022-12-13T12:33:54.671Z,4.23
2022-12-13T12:36:38.404Z,4.43
2022-12-13T12:39:51.827Z,4.70
2022-12-13T12:43:14.329Z,4.30
2022-12-13T12:45:57.499Z,3.93
2022-12-13T12:49:02.618Z,4.17
2022-12-13T12:51:54.792Z,4.30
2022-12-13T12:54:53.085Z,4.80
2022-12-13T12:57:52.803Z,3.63
2022-12-13T13:00:25.215Z,3.97
2022-12-13T13:03:23.561Z,3.57
2022-12-13T13:06:14.613Z,2.80
2022-12-13T13:09:00.150Z,3.77
2022-12-13T13:11:42.711Z,3.50
2022-12-13T13:14:34.949Z,3.20
2022-12-13T13:17:14.530Z,2.73
2022-12-13T13:19:52.966Z,5.80
2022-12-13T13:22:33.428Z,3.67
2022-12-13T13:25:12.982Z,3.97
2022-12-13T13:27:48.355Z,3.80
2022-12-13T13:30:26.371Z,3.07
2022-12-13T13:32:58.441Z,3.00
2022-12-13T13:35:36.974Z,3.20
2022-12-13T13:38:28.658Z,3.27
2022-12-13T13:40:58.117Z,2.90
2022-12-13T13:43:33.329Z,2.57
2022-12-13T13:46:12.409Z,2.90
2022-12-13T13:49:07.432Z,2.53
2022-12-13T13:54:38.129Z,2.70
2022-12-13T13:58:07.063Z,2.57
2022-12-13T14:00:17.741Z,2.53
2022-12-13T14:03:34.992Z,2.17
2022-12-13T14:06:35.527Z,2.20
2022-12-13T14:09:33.074Z,2.20
2022-12-13T14:12:34.173Z,2.43
2022-12-13T14:15:36.422Z,2.70
2022-12-13T14:18:38.828Z,2.37
2022-12-13T14:21:12.905Z,2.37
2022-12-13T14:24:05.018Z,2.40
2022-12-13T14:26:59.878Z,2.23
2022-12-13T14:29:36.794Z,2.17
2022-12-13T14:32:26.121Z,2.00
2022-12-13T14:34:46.843Z,2.43
2022-12-13T14:37:30.643Z,2.53
2022-12-13T14:40:02.712Z,2.50
2022-12-13T14:42:34.792Z,2.50
2022-12-13T14:45:24.495Z,3.00
2022-12-13T14:47:56.375Z,2.97
2022-12-13T14:50:32.007Z,2.30
2022-12-13T14:53:04.113Z,3.00
2022-12-13T14:55:37.829Z,2.53
2022-12-13T14:58:20.382Z,2.10
2022-12-13T15:00:50.030Z,2.10
2022-12-13T15:03:27.027Z,2.00
2022-12-13T15:06:01.855Z,2.20
2022-12-13T15:08:34.134Z,1.50
2022-12-13T15:11:09.429Z,1.60
2022-12-13T15:13:42.849Z,1.70
2022-12-13T15:16:25.851Z,1.93
2022-12-13T15:19:20.733Z,1.93
2022-12-13T15:22:07.584Z,2.40
2022-12-13T15:24:41.607Z,1.87
2022-12-13T15:27:12.138Z,1.80
2022-12-13T15:29:42.037Z,1.80
2022-12-13T15:32:19.204Z,1.73
2022-12-13T15:34:49.042Z,1.57
2022-12-13T15:37:29.725Z,2.00
2022-12-13T15:40:04.119Z,1.30
2022-12-13T15:42:38.347Z,1.70
2022-12-13T15:45:18.756Z,1.90
2022-12-13T15:47:50.026Z,1.73
2022-12-13T15:50:47.282Z,1.70
2022-12-13T15:53:30.294Z,1.90
2022-12-13T15:56:04.823Z,2.20
2022-12-13T15:58:38.153Z,1.80
2022-12-13T16:01:07.707Z,2.00
2022-12-13T16:03:44.248Z,1.93
2022-12-13T16:06:23.503Z,2.00
2022-12-13T16:08:57.379Z,2.20
2022-12-13T16:11:36.929Z,1.87
2022-12-13T16:14:34.159Z,2.30
2022-12-13T16:17:16.878Z,2.17
2022-12-13T16:19:46.535Z,2.53
2022-12-13T16:22:17.746Z,2.33
2022-12-13T16:24:47.230Z,2.30
2022-12-13T16:27:17.797Z,2.43
2022-12-13T16:29:47.277Z,2.20
2022-12-13T16:32:17.141Z,2.30
2022-12-13T16:34:46.544Z,2.60
2022-12-13T16:37:26.083Z,2.80
2022-12-13T16:39:47.156Z,2.43
2022-12-13T16:42:16.621Z,2.43
2022-12-13T16:44:47.616Z,2.30
2022-12-13T16:47:27.062Z,2.90
2022-12-13T16:49:50.000Z,2.77
2022-12-13T16:52:21.109Z,2.90
2022-12-13T16:54:52.705Z,2.80
2022-12-13T16:57:22.291Z,3.80
2022-12-13T16:59:51.788Z,3.57
2022-12-13T17:02:21.323Z,3.60
2022-12-13T17:04:50.848Z,3.83
2022-12-13T17:07:20.292Z,3.10
2022-12-13T17:09:49.726Z,3.17
2022-12-13T17:12:19.167Z,3.60
2022-12-13T17:14:48.601Z,3.40
2022-12-13T17:17:18.207Z,3.30
2022-12-13T17:19:47.672Z,3.40
2022-12-13T17:22:17.117Z,3.50
2022-12-13T17:24:46.561Z,3.90
2022-12-13T17:27:18.545Z,3.50
2022-12-13T17:29:49.698Z,3.70
2022-12-13T17:32:19.463Z,4.73
2022-12-13T17:34:48.984Z,4.37
2022-12-13T17:37:18.604Z,4.43
2022-12-13T17:39:48.414Z,4.17
2022-12-13T17:42:17.857Z,4.27
2022-12-13T17:44:47.312Z,3.80
2022-12-13T17:47:16.745Z,4.07
2022-12-13T17:49:46.198Z,3.90
2022-12-13T17:52:15.632Z,5.20
2022-12-13T17:54:45.151Z,4.50
2022-12-13T17:57:14.622Z,4.27
2022-12-13T17:59:44.254Z,4.43
2022-12-13T18:02:15.057Z,4.27
2022-12-13T18:04:44.528Z,3.83
2022-12-13T18:07:14.134Z,3.97
2022-12-13T18:09:43.594Z,3.90
2022-12-13T18:12:13.301Z,3.60
2022-12-13T18:14:43.534Z,3.83
2022-12-13T18:17:13.819Z,3.80
2022-12-13T18:19:43.415Z,3.80
2022-12-13T18:22:14.416Z,3.30
2022-12-13T18:24:43.870Z,4.20
2022-12-13T18:27:13.300Z,3.40
2022-12-13T18:29:42.826Z,3.97
2022-12-13T18:32:13.995Z,3.40
2022-12-13T18:34:43.513Z,3.30
2022-12-13T18:37:12.952Z,2.80
2022-12-13T18:39:43.860Z,2.60
2022-12-13T18:42:15.024Z,2.80
2022-12-13T18:44:54.251Z,2.83
2022-12-13T18:47:20.908Z,3.00
2022-12-13T18:49:58.234Z,2.77
2022-12-13T18:52:18.692Z,2.97
2022-12-13T18:54:54.490Z,2.70
2022-12-13T18:57:20.382Z,2.70
2022-12-13T18:59:54.337Z,2.60
2022-12-13T19:02:21.265Z,2.73
2022-12-13T19:04:55.098Z,2.50
2022-12-13T19:07:22.327Z,2.40
2022-12-13T19:09:54.828Z,2.70
2022-12-13T19:12:23.547Z,2.47
2022-12-13T19:14:54.700Z,2.70
2022-12-13T19:17:24.680Z,2.40
2022-12-13T19:19:54.820Z,2.47
2022-12-13T19:22:24.277Z,2.17
2022-12-13T19:24:53.730Z,2.57
2022-12-13T19:27:23.175Z,2.50
2022-12-13T19:29:52.625Z,2.43
2022-12-13T19:32:22.066Z,2.30
2022-12-13T19:34:51.518Z,2.37
2022-12-13T19:37:21.028Z,2.43
2022-12-13T19:39:50.477Z,3.10
2022-12-13T19:42:19.921Z,2.87
2022-12-13T19:44:50.150Z,3.33
2022-12-13T19:47:19.600Z,2.93
2022-12-13T19:49:49.047Z,2.50
2022-12-13T19:52:18.505Z,2.87
2022-12-13T19:54:47.939Z,2.60
2022-12-13T19:57:17.766Z,2.63
2022-12-13T19:59:47.211Z,3.27
2022-12-13T20:02:16.919Z,3.47
2022-12-13T20:04:46.368Z,2.60
2022-12-13T20:07:15.810Z,2.73
2022-12-13T20:09:45.268Z,2.67
2022-12-13T20:12:14.717Z,2.60
2022-12-13T20:14:44.259Z,2.97
2022-12-13T20:17:13.696Z,2.67
2022-12-13T20:19:43.161Z,2.90
2022-12-13T20:22:12.663Z,2.63
2022-12-13T20:24:42.125Z,2.47
2022-12-13T20:27:12.142Z,2.03
2022-12-13T20:29:42.045Z,2.57
2022-12-13T20:32:13.248Z,2.57
2022-12-13T20:34:42.966Z,2.73
2022-12-13T20:37:12.526Z,2.80
2022-12-13T20:39:42.238Z,2.60
2022-12-13T20:42:11.688Z,2.60
2022-12-13T20:44:41.730Z,3.93
2022-12-13T20:47:11.602Z,3.57
2022-12-13T20:49:41.222Z,3.23
2022-12-13T20:52:10.660Z,3.40
2022-12-13T20:54:40.145Z,3.20
2022-12-13T20:57:10.055Z,3.00
2022-12-13T20:59:39.511Z,2.83
2022-12-13T21:02:10.634Z,5.53
2022-12-13T21:04:40.093Z,4.17
2022-12-13T21:07:09.808Z,3.60
2022-12-13T21:09:39.258Z,3.33
2022-12-13T21:12:08.805Z,2.87
2022-12-13T21:14:38.289Z,2.90
2022-12-13T21:17:09.395Z,3.13
2022-12-13T21:19:40.667Z,2.90
2022-12-13T21:22:10.433Z,3.20
2022-12-13T21:24:40.250Z,3.20
2022-12-13T21:27:09.854Z,2.83
2022-12-13T21:29:39.572Z,3.07
2022-12-13T21:32:09.090Z,3.03
2022-12-13T21:34:40.031Z,3.10
2022-12-13T21:37:09.462Z,3.17
2022-12-13T21:39:38.904Z,2.83
2022-12-13T21:42:09.410Z,2.70
2022-12-13T21:44:38.870Z,2.73
2022-12-13T21:47:12.853Z,2.67
2022-12-13T21:49:39.648Z,2.50
2022-12-13T21:52:09.086Z,2.73
2022-12-13T21:54:38.721Z,3.10
2022-12-13T21:57:27.161Z,2.97
2022-12-13T21:59:56.973Z,2.70
2022-12-13T22:02:26.466Z,3.03
2022-12-13T22:04:58.589Z,3.03
2022-12-13T22:07:34.258Z,3.10
2022-12-13T22:10:04.370Z,3.00
2022-12-13T22:12:42.571Z,3.00
2022-12-13T22:15:15.563Z,3.23
2022-12-13T22:17:45.321Z,2.80
2022-12-13T22:20:16.458Z,2.60
2022-12-13T22:22:48.606Z,2.60
2022-12-13T22:25:18.844Z,3.00
2022-12-13T22:27:48.260Z,3.20
2022-12-13T22:30:17.816Z,2.97
2022-12-13T22:32:47.249Z,2.83
2022-12-13T22:35:16.703Z,2.87
2022-12-13T22:37:47.684Z,2.90
2022-12-13T22:40:18.415Z,3.00
2022-12-13T22:42:48.422Z,2.87
2022-12-13T22:45:17.997Z,3.30
2022-12-13T22:47:47.433Z,2.67
2022-12-13T22:50:16.891Z,3.20
2022-12-13T22:52:46.343Z,2.80
2022-12-13T22:55:16.572Z,3.33
2022-12-13T22:57:48.453Z,2.87
2022-12-13T23:00:17.498Z,3.23
2022-12-13T23:02:46.935Z,2.70
2022-12-13T23:05:16.600Z,3.40
2022-12-13T23:07:48.731Z,3.10
2022-12-13T23:10:35.103Z,3.67
2022-12-13T23:13:04.535Z,3.33
2022-12-13T23:15:37.932Z,3.23
2022-12-13T23:18:07.445Z,2.80
2022-12-13T23:20:36.933Z,2.97
2022-12-13T23:23:06.395Z,2.70
2022-12-13T23:25:36.099Z,2.53
2022-12-13T23:28:05.852Z,2.87
2022-12-13T23:30:37.515Z,2.50
2022-12-13T23:33:07.052Z,2.40
2022-12-13T23:35:36.499Z,2.10
2022-12-13T23:38:06.018Z,2.43
2022-12-13T23:40:35.465Z,2.60
2022-12-13T23:43:04.927Z,2.60
2022-12-13T23:45:34.358Z,2.50
2022-12-13T23:48:03.798Z,2.30
2022-12-13T23:50:33.266Z,1.70
2022-12-13T23:53:03.291Z,2.03
2022-12-13T23:55:34.277Z,2.10
2022-12-13T23:58:03.734Z,1.80
